PWSweather.com
Personal Weather Stations
Station Observations
NOCONAWX
Sherman Street, Nocona, TX 76255

Sherman StreetNocona, TX 76255

Lat: 33.7851771, Lon: -97.7248693

Elevation: 981

Station Type: Davis 6152

http://www.noconaweather.com

Latest ConditionsUpdated 8:45:01 PM CDT Monday, Sep 1, 2014
Currently Today's Max Today's Min Today's Average
Temperature 88.2°F31.2°C 96.3°F35.7°C 76.0°F24.4°C 86.0°F30.0°C
Dew Point 69.5°F20.8°C 73.8°F23.2°C 69.5°F20.8°C 71.5°F21.9°C
Winds 4.0 mph NW6.4 kmh NW 8.0 mph NNW12.9 kmh NNW - 5.7 mph 9.2 kmh
Wind Gusts 8.0 mph12.9 kmh 19.0 mph30.6 kmh - -
Humidity 54% 85% 43% 64%
Pressure 29.74 in1007.1 mb 29.82 in1009.8 mb 29.73 in1006.8 mb -
Hour Temp Dew Point Humidity Winds Wind Gusts Pressure Precip Precip Rate Daily Precip Total
08:45 PM 88.2°F31.2°C 69.5°F20.8°C 54% 4.0 mph NW6.4 kmh NW 8.0 mph12.9 kmh 29.74 in1007.1 mb 0.00 in0.0 mm 0.00 in/hr0.0 mm/hr 0.00 in0.0 mm
08:30 PM 88.6°F31.4°C 69.8°F21.0°C 54% 4.0 mph NNW6.4 kmh NNW 9.0 mph14.5 kmh 29.74 in1007.1 mb 0.00 in0.0 mm 0.00 in/hr0.0 mm/hr 0.00 in0.0 mm
08:15 PM 89.2°F31.8°C 69.8°F21.0°C 53% 4.0 mph NNW6.4 kmh NNW 8.0 mph12.9 kmh 29.73 in1006.8 mb 0.00 in0.0 mm 0.00 in/hr0.0 mm/hr 0.00 in0.0 mm
08:00 PM 90.0°F32.2°C 70.0°F21.1°C 52% 4.0 mph NNW6.4 kmh NNW 8.0 mph12.9 kmh 29.73 in1006.8 mb 0.00 in0.0 mm 0.00 in/hr0.0 mm/hr 0.00 in0.0 mm
07:45 PM 90.8°F32.7°C 70.2°F21.2°C 51% 4.0 mph NNW6.4 kmh NNW 9.0 mph14.5 kmh 29.73 in1006.8 mb 0.00 in0.0 mm 0.00 in/hr0.0 mm/hr 0.00 in0.0 mm
07:30 PM 91.6°F33.1°C 69.7°F20.9°C 49% 5.0 mph NNW8.0 kmh NNW 10.0 mph16.1 kmh 29.73 in1006.8 mb 0.00 in0.0 mm 0.00 in/hr0.0 mm/hr 0.00 in0.0 mm
07:15 PM 92.4°F33.6°C 69.9°F21.1°C 48% 5.0 mph NNW8.0 kmh NNW 12.0 mph19.3 kmh 29.73 in1006.8 mb 0.00 in0.0 mm 0.00 in/hr0.0 mm/hr 0.00 in0.0 mm
07:00 PM 93.2°F34.0°C 70.0°F21.1°C 47% 5.0 mph NNW8.0 kmh NNW 14.0 mph22.5 kmh 29.73 in1006.8 mb 0.00 in0.0 mm 0.00 in/hr0.0 mm/hr 0.00 in0.0 mm
06:45 PM 93.6°F34.2°C 69.7°F20.9°C 46% 7.0 mph N11.3 kmh N 14.0 mph22.5 kmh 29.73 in1006.8 mb 0.00 in0.0 mm 0.00 in/hr0.0 mm/hr 0.00 in0.0 mm
06:30 PM 94.2°F34.6°C 70.2°F21.2°C 46% 6.0 mph NNW9.7 kmh NNW 13.0 mph20.9 kmh 29.73 in1006.8 mb 0.00 in0.0 mm 0.00 in/hr0.0 mm/hr 0.00 in0.0 mm
06:15 PM 94.6°F34.8°C 70.6°F21.4°C 46% 6.0 mph N9.7 kmh N 10.0 mph16.1 kmh 29.74 in1007.1 mb 0.00 in0.0 mm 0.00 in/hr0.0 mm/hr 0.00 in0.0 mm
06:00 PM 95.1°F35.1°C 70.4°F21.3°C 45% 5.0 mph NW8.0 kmh NW 15.0 mph24.1 kmh 29.73 in1006.8 mb 0.00 in0.0 mm 0.00 in/hr0.0 mm/hr 0.00 in0.0 mm
05:45 PM 95.4°F35.2°C 70.7°F21.5°C 45% 6.0 mph NW9.7 kmh NW 10.0 mph16.1 kmh 29.74 in1007.1 mb 0.00 in0.0 mm 0.00 in/hr0.0 mm/hr 0.00 in0.0 mm
05:30 PM 95.7°F35.4°C 70.3°F21.3°C 44% 7.0 mph NNW11.3 kmh NNW 12.0 mph19.3 kmh 29.74 in1007.1 mb 0.00 in0.0 mm 0.00 in/hr0.0 mm/hr 0.00 in0.0 mm
05:15 PM 95.9°F35.5°C 70.5°F21.4°C 44% 6.0 mph NNW9.7 kmh NNW 17.0 mph27.4 kmh 29.74 in1007.1 mb 0.00 in0.0 mm 0.00 in/hr0.0 mm/hr 0.00 in0.0 mm
05:00 PM 96.0°F35.6°C 70.6°F21.4°C 44% 6.0 mph NW9.7 kmh NW 12.0 mph19.3 kmh 29.74 in1007.1 mb 0.00 in0.0 mm 0.00 in/hr0.0 mm/hr 0.00 in0.0 mm
04:45 PM 96.3°F35.7°C 70.8°F21.6°C 44% 7.0 mph NNW11.3 kmh NNW 12.0 mph19.3 kmh 29.74 in1007.1 mb 0.00 in0.0 mm 0.00 in/hr0.0 mm/hr 0.00 in0.0 mm
04:30 PM 96.3°F35.7°C 70.2°F21.2°C 43% 7.0 mph NNW11.3 kmh NNW 13.0 mph20.9 kmh 29.74 in1007.1 mb 0.00 in0.0 mm 0.00 in/hr0.0 mm/hr 0.00 in0.0 mm
04:15 PM 96.1°F35.6°C 70.7°F21.5°C 44% 8.0 mph NNW12.9 kmh NNW 16.0 mph25.7 kmh 29.74 in1007.1 mb 0.00 in0.0 mm 0.00 in/hr0.0 mm/hr 0.00 in0.0 mm
04:00 PM 96.2°F35.7°C 71.4°F21.9°C 45% 6.0 mph N9.7 kmh N 18.0 mph29.0 kmh 29.75 in1007.5 mb 0.00 in0.0 mm 0.00 in/hr0.0 mm/hr 0.00 in0.0 mm
03:45 PM 96.0°F35.6°C 71.2°F21.8°C 45% 7.0 mph N11.3 kmh N 16.0 mph25.7 kmh 29.75 in1007.5 mb 0.00 in0.0 mm 0.00 in/hr0.0 mm/hr 0.00 in0.0 mm
03:30 PM 96.0°F35.6°C 70.6°F21.4°C 44% 7.0 mph N11.3 kmh N 13.0 mph20.9 kmh 29.75 in1007.5 mb 0.00 in0.0 mm 0.00 in/hr0.0 mm/hr 0.00 in0.0 mm
03:15 PM 95.6°F35.3°C 70.9°F21.6°C 45% 7.0 mph N11.3 kmh N 15.0 mph24.1 kmh 29.76 in1007.8 mb 0.00 in0.0 mm 0.00 in/hr0.0 mm/hr 0.00 in0.0 mm
03:00 PM 95.2°F35.1°C 71.2°F21.8°C 46% 7.0 mph N11.3 kmh N 13.0 mph20.9 kmh 29.76 in1007.8 mb 0.00 in0.0 mm 0.00 in/hr0.0 mm/hr 0.00 in0.0 mm
02:45 PM 94.5°F34.7°C 71.8°F22.1°C 48% 7.0 mph N11.3 kmh N 15.0 mph24.1 kmh 29.77 in1008.1 mb 0.00 in0.0 mm 0.00 in/hr0.0 mm/hr 0.00 in0.0 mm
02:30 PM 94.7°F34.8°C 72.0°F22.2°C 48% 7.0 mph NNW11.3 kmh NNW 11.0 mph17.7 kmh 29.77 in1008.1 mb 0.00 in0.0 mm 0.00 in/hr0.0 mm/hr 0.00 in0.0 mm
02:15 PM 94.3°F34.6°C 72.2°F22.3°C 49% 7.0 mph N11.3 kmh N 19.0 mph30.6 kmh 29.77 in1008.1 mb 0.00 in0.0 mm 0.00 in/hr0.0 mm/hr 0.00 in0.0 mm
02:00 PM 94.2°F34.6°C 72.7°F22.6°C 50% 6.0 mph NW9.7 kmh NW 14.0 mph22.5 kmh 29.78 in1008.5 mb 0.00 in0.0 mm 0.00 in/hr0.0 mm/hr 0.00 in0.0 mm
01:45 PM 93.6°F34.2°C 73.3°F22.9°C 52% 6.0 mph NNW9.7 kmh NNW 11.0 mph17.7 kmh 29.79 in1008.8 mb 0.00 in0.0 mm 0.00 in/hr0.0 mm/hr 0.00 in0.0 mm
01:30 PM 93.2°F34.0°C 73.5°F23.1°C 53% 6.0 mph NNW9.7 kmh NNW 10.0 mph16.1 kmh 29.79 in1008.8 mb 0.00 in0.0 mm 0.00 in/hr0.0 mm/hr 0.00 in0.0 mm
01:15 PM 93.0°F33.9°C 72.8°F22.7°C 52% 5.0 mph N8.0 kmh N 14.0 mph22.5 kmh 29.79 in1008.8 mb 0.00 in0.0 mm 0.00 in/hr0.0 mm/hr 0.00 in0.0 mm
01:00 PM 92.3°F33.5°C 73.8°F23.2°C 55% 6.0 mph NNE9.7 kmh NNE 10.0 mph16.1 kmh 29.80 in1009.1 mb 0.00 in0.0 mm 0.00 in/hr0.0 mm/hr 0.00 in0.0 mm
12:45 PM 91.9°F33.3°C 72.3°F22.4°C 53% 5.0 mph NNW8.0 kmh NNW 12.0 mph19.3 kmh 29.81 in1009.5 mb 0.00 in0.0 mm 0.00 in/hr0.0 mm/hr 0.00 in0.0 mm
12:30 PM 91.3°F32.9°C 73.4°F23.0°C 56% 5.0 mph NNE8.0 kmh NNE 9.0 mph14.5 kmh 29.81 in1009.5 mb 0.00 in0.0 mm 0.00 in/hr0.0 mm/hr 0.00 in0.0 mm
12:15 PM 90.2°F32.3°C 72.9°F22.7°C 57% 6.0 mph NW9.7 kmh NW 10.0 mph16.1 kmh 29.82 in1009.8 mb 0.00 in0.0 mm 0.00 in/hr0.0 mm/hr 0.00 in0.0 mm
12:00 PM 89.7°F32.1°C 73.0°F22.8°C 58% 5.0 mph N8.0 kmh N 11.0 mph17.7 kmh 29.82 in1009.8 mb 0.00 in0.0 mm 0.00 in/hr0.0 mm/hr 0.00 in0.0 mm
11:45 AM 88.7°F31.5°C 73.0°F22.8°C 60% 6.0 mph N9.7 kmh N 10.0 mph16.1 kmh 29.82 in1009.8 mb 0.00 in0.0 mm 0.00 in/hr0.0 mm/hr 0.00 in0.0 mm
11:30 AM 88.1°F31.2°C 73.0°F22.8°C 61% 6.0 mph N9.7 kmh N 10.0 mph16.1 kmh 29.81 in1009.5 mb 0.00 in0.0 mm 0.00 in/hr0.0 mm/hr 0.00 in0.0 mm
11:15 AM 87.3°F30.7°C 72.7°F22.6°C 62% 6.0 mph NNW9.7 kmh NNW 11.0 mph17.7 kmh 29.81 in1009.5 mb 0.00 in0.0 mm 0.00 in/hr0.0 mm/hr 0.00 in0.0 mm
11:00 AM 86.3°F30.2°C 73.1°F22.8°C 65% 6.0 mph N9.7 kmh N 14.0 mph22.5 kmh 29.81 in1009.5 mb 0.00 in0.0 mm 0.00 in/hr0.0 mm/hr 0.00 in0.0 mm
10:45 AM 85.5°F29.7°C 73.3°F22.9°C 67% 6.0 mph N9.7 kmh N 14.0 mph22.5 kmh 29.81 in1009.5 mb 0.00 in0.0 mm 0.00 in/hr0.0 mm/hr 0.00 in0.0 mm
10:30 AM 84.3°F29.1°C 72.6°F22.6°C 68% 8.0 mph N12.9 kmh N 19.0 mph30.6 kmh 29.81 in1009.5 mb 0.00 in0.0 mm 0.00 in/hr0.0 mm/hr 0.00 in0.0 mm
10:15 AM 83.9°F28.8°C 72.6°F22.6°C 69% 8.0 mph N12.9 kmh N 12.0 mph19.3 kmh 29.81 in1009.5 mb 0.00 in0.0 mm 0.00 in/hr0.0 mm/hr 0.00 in0.0 mm
10:00 AM 83.1°F28.4°C 72.7°F22.6°C 71% 7.0 mph N11.3 kmh N 17.0 mph27.4 kmh 29.80 in1009.1 mb 0.00 in0.0 mm 0.00 in/hr0.0 mm/hr 0.00 in0.0 mm
09:45 AM 82.2°F27.9°C 72.7°F22.6°C 73% 6.0 mph N9.7 kmh N 12.0 mph19.3 kmh 29.80 in1009.1 mb 0.00 in0.0 mm 0.00 in/hr0.0 mm/hr 0.00 in0.0 mm
09:30 AM 81.5°F27.5°C 72.8°F22.7°C 75% 6.0 mph N9.7 kmh N 16.0 mph25.7 kmh 29.80 in1009.1 mb 0.00 in0.0 mm 0.00 in/hr0.0 mm/hr 0.00 in0.0 mm
09:15 AM 80.6°F27.0°C 72.3°F22.4°C 76% 6.0 mph N9.7 kmh N 11.0 mph17.7 kmh 29.80 in1009.1 mb 0.00 in0.0 mm 0.00 in/hr0.0 mm/hr 0.00 in0.0 mm
09:00 AM 79.8°F26.6°C 72.3°F22.4°C 78% 6.0 mph N9.7 kmh N 14.0 mph22.5 kmh 29.80 in1009.1 mb 0.00 in0.0 mm 0.00 in/hr0.0 mm/hr 0.00 in0.0 mm
08:45 AM 78.9°F26.1°C 72.2°F22.3°C 80% 6.0 mph N9.7 kmh N 17.0 mph27.4 kmh 29.80 in1009.1 mb 0.00 in0.0 mm 0.00 in/hr0.0 mm/hr 0.00 in0.0 mm
08:30 AM 78.3°F25.7°C 72.0°F22.2°C 81% 5.0 mph N8.0 kmh N 11.0 mph17.7 kmh 29.81 in1009.5 mb 0.00 in0.0 mm 0.00 in/hr0.0 mm/hr 0.00 in0.0 mm
08:15 AM 77.6°F25.3°C 72.0°F22.2°C 83% 5.0 mph N8.0 kmh N 11.0 mph17.7 kmh 29.80 in1009.1 mb 0.00 in0.0 mm 0.00 in/hr0.0 mm/hr 0.00 in0.0 mm
08:00 AM 77.0°F25.0°C 71.8°F22.1°C 84% 5.0 mph N8.0 kmh N 12.0 mph19.3 kmh 29.80 in1009.1 mb 0.00 in0.0 mm 0.00 in/hr0.0 mm/hr 0.00 in0.0 mm
07:45 AM 76.4°F24.7°C 71.6°F22.0°C 85% 5.0 mph N8.0 kmh N 13.0 mph20.9 kmh 29.80 in1009.1 mb 0.00 in0.0 mm 0.00 in/hr0.0 mm/hr 0.00 in0.0 mm
07:30 AM 76.1°F24.5°C 71.3°F21.8°C 85% 4.0 mph NNW6.4 kmh NNW 12.0 mph19.3 kmh 29.80 in1009.1 mb 0.00 in0.0 mm 0.00 in/hr0.0 mm/hr 0.00 in0.0 mm
07:15 AM 76.0°F24.4°C 71.2°F21.8°C 85% 4.0 mph N6.4 kmh N 10.0 mph16.1 kmh 29.79 in1008.8 mb 0.00 in0.0 mm 0.00 in/hr0.0 mm/hr 0.00 in0.0 mm
07:00 AM 76.1°F24.5°C 71.3°F21.8°C 85% 4.0 mph N6.4 kmh N 8.0 mph12.9 kmh 29.79 in1008.8 mb 0.00 in0.0 mm 0.00 in/hr0.0 mm/hr 0.00 in0.0 mm
06:45 AM 76.3°F24.6°C 71.1°F21.7°C 84% 4.0 mph N6.4 kmh N 8.0 mph12.9 kmh 29.79 in1008.8 mb 0.00 in0.0 mm 0.00 in/hr0.0 mm/hr 0.00 in0.0 mm
06:30 AM 76.4°F24.7°C 70.9°F21.6°C 83% 4.0 mph N6.4 kmh N 6.0 mph9.7 kmh 29.79 in1008.8 mb 0.00 in0.0 mm 0.00 in/hr0.0 mm/hr 0.00 in0.0 mm
06:15 AM 76.6°F24.8°C 71.0°F21.7°C 83% 4.0 mph N6.4 kmh N 10.0 mph16.1 kmh 29.79 in1008.8 mb 0.00 in0.0 mm 0.00 in/hr0.0 mm/hr 0.00 in0.0 mm
06:00 AM 76.8°F24.9°C 70.9°F21.6°C 82% 3.0 mph NNW4.8 kmh NNW 9.0 mph14.5 kmh 29.78 in1008.5 mb 0.00 in0.0 mm 0.00 in/hr0.0 mm/hr 0.00 in0.0 mm
05:45 AM 77.1°F25.1°C 70.8°F21.6°C 81% 4.0 mph N6.4 kmh N 8.0 mph12.9 kmh 29.78 in1008.5 mb 0.00 in0.0 mm 0.00 in/hr0.0 mm/hr 0.00 in0.0 mm
05:30 AM 77.4°F25.2°C 70.7°F21.5°C 80% 4.0 mph N6.4 kmh N 10.0 mph16.1 kmh 29.78 in1008.5 mb 0.00 in0.0 mm 0.00 in/hr0.0 mm/hr 0.00 in0.0 mm
05:15 AM 77.6°F25.3°C 70.6°F21.4°C 79% 4.0 mph N6.4 kmh N 10.0 mph16.1 kmh 29.77 in1008.1 mb 0.00 in0.0 mm 0.00 in/hr0.0 mm/hr 0.00 in0.0 mm
05:00 AM 77.8°F25.4°C 70.4°F21.3°C 78% 4.0 mph N6.4 kmh N 8.0 mph12.9 kmh 29.77 in1008.1 mb 0.00 in0.0 mm 0.00 in/hr0.0 mm/hr 0.00 in0.0 mm
04:45 AM 78.1°F25.6°C 70.7°F21.5°C 78% 5.0 mph N8.0 kmh N 12.0 mph19.3 kmh 29.76 in1007.8 mb 0.00 in0.0 mm 0.00 in/hr0.0 mm/hr 0.00 in0.0 mm
04:30 AM 78.2°F25.7°C 70.8°F21.6°C 78% 4.0 mph N6.4 kmh N 7.0 mph11.3 kmh 29.76 in1007.8 mb 0.00 in0.0 mm 0.00 in/hr0.0 mm/hr 0.00 in0.0 mm
04:15 AM 78.5°F25.8°C 70.7°F21.5°C 77% 5.0 mph NNW8.0 kmh NNW 12.0 mph19.3 kmh 29.75 in1007.5 mb 0.00 in0.0 mm 0.00 in/hr0.0 mm/hr 0.00 in0.0 mm
04:00 AM 78.7°F25.9°C 70.9°F21.6°C 77% 6.0 mph N9.7 kmh N 13.0 mph20.9 kmh 29.75 in1007.5 mb 0.00 in0.0 mm 0.00 in/hr0.0 mm/hr 0.00 in0.0 mm
03:45 AM 78.8°F26.0°C 71.4°F21.9°C 78% 5.0 mph N8.0 kmh N 14.0 mph22.5 kmh 29.75 in1007.5 mb 0.00 in0.0 mm 0.00 in/hr0.0 mm/hr 0.00 in0.0 mm
03:30 AM 79.0°F26.1°C 71.2°F21.8°C 77% 6.0 mph NNW9.7 kmh NNW 16.0 mph25.7 kmh 29.75 in1007.5 mb 0.00 in0.0 mm 0.00 in/hr0.0 mm/hr 0.00 in0.0 mm
03:15 AM 79.3°F26.3°C 71.5°F21.9°C 77% 6.0 mph NNW9.7 kmh NNW 12.0 mph19.3 kmh 29.75 in1007.5 mb 0.00 in0.0 mm 0.00 in/hr0.0 mm/hr 0.00 in0.0 mm
03:00 AM 79.6°F26.4°C 71.8°F22.1°C 77% 6.0 mph NNW9.7 kmh NNW 13.0 mph20.9 kmh 29.75 in1007.5 mb 0.00 in0.0 mm 0.00 in/hr0.0 mm/hr 0.00 in0.0 mm
02:45 AM 79.9°F26.6°C 71.7°F22.1°C 76% 7.0 mph N11.3 kmh N 16.0 mph25.7 kmh 29.75 in1007.5 mb 0.00 in0.0 mm 0.00 in/hr0.0 mm/hr 0.00 in0.0 mm
02:30 AM 80.2°F26.8°C 71.6°F22.0°C 75% 6.0 mph N9.7 kmh N 10.0 mph16.1 kmh 29.76 in1007.8 mb 0.00 in0.0 mm 0.00 in/hr0.0 mm/hr 0.00 in0.0 mm
02:15 AM 80.6°F27.0°C 71.5°F21.9°C 74% 6.0 mph NNW9.7 kmh NNW 11.0 mph17.7 kmh 29.76 in1007.8 mb 0.00 in0.0 mm 0.00 in/hr0.0 mm/hr 0.00 in0.0 mm
02:00 AM 81.0°F27.2°C 71.5°F21.9°C 73% 7.0 mph N11.3 kmh N 16.0 mph25.7 kmh 29.76 in1007.8 mb 0.00 in0.0 mm 0.00 in/hr0.0 mm/hr 0.00 in0.0 mm
01:45 AM 81.3°F27.4°C 71.4°F21.9°C 72% 7.0 mph N11.3 kmh N 13.0 mph20.9 kmh 29.76 in1007.8 mb 0.00 in0.0 mm 0.00 in/hr0.0 mm/hr 0.00 in0.0 mm
01:30 AM 81.7°F27.6°C 71.4°F21.9°C 71% 5.0 mph N8.0 kmh N 12.0 mph19.3 kmh 29.76 in1007.8 mb 0.00 in0.0 mm 0.00 in/hr0.0 mm/hr 0.00 in0.0 mm
01:15 AM 82.2°F27.9°C 71.0°F21.7°C 69% 7.0 mph N11.3 kmh N 18.0 mph29.0 kmh 29.76 in1007.8 mb 0.00 in0.0 mm 0.00 in/hr0.0 mm/hr 0.00 in0.0 mm
01:00 AM 82.6°F28.1°C 71.4°F21.9°C 69% 7.0 mph N11.3 kmh N 13.0 mph20.9 kmh 29.76 in1007.8 mb 0.00 in0.0 mm 0.00 in/hr0.0 mm/hr 0.00 in0.0 mm
12:45 AM 82.8°F28.2°C 71.2°F21.8°C 68% 6.0 mph NNW9.7 kmh NNW 15.0 mph24.1 kmh 29.76 in1007.8 mb 0.00 in0.0 mm 0.00 in/hr0.0 mm/hr 0.00 in0.0 mm
12:30 AM 83.0°F28.3°C 71.8°F22.1°C 69% 6.0 mph N9.7 kmh N 13.0 mph20.9 kmh 29.76 in1007.8 mb 0.00 in0.0 mm 0.00 in/hr0.0 mm/hr 0.00 in0.0 mm
12:15 AM 82.9°F28.3°C 71.7°F22.1°C 69% 7.0 mph N11.3 kmh N 13.0 mph20.9 kmh 29.76 in1007.8 mb 0.00 in0.0 mm 0.00 in/hr0.0 mm/hr 0.00 in0.0 mm
12:00 AM 83.1°F28.4°C 71.4°F21.9°C 68% 6.0 mph N9.7 kmh N 10.0 mph16.1 kmh 29.76 in1007.8 mb 0.00 in0.0 mm 0.00 in/hr0.0 mm/hr 0.00 in0.0 mm